createdAt,value
2022-08-25T00:00:36.715Z,15.90
2022-08-25T00:05:41.219Z,15.80
2022-08-25T00:10:44.011Z,15.80
2022-08-25T00:16:03.409Z,15.70
2022-08-25T00:21:07.842Z,15.70
2022-08-25T00:26:11.471Z,15.60
2022-08-25T00:31:20.244Z,15.60
2022-08-25T00:36:23.062Z,15.50
2022-08-25T00:41:27.242Z,15.50
2022-08-25T00:46:37.194Z,15.40
2022-08-25T00:51:52.103Z,15.40
2022-08-25T00:56:58.822Z,15.30
2022-08-25T01:02:02.659Z,15.30
2022-08-25T01:07:15.523Z,15.30
2022-08-25T01:12:21.786Z,15.20
2022-08-25T01:17:27.966Z,15.20
2022-08-25T01:22:32.379Z,15.10
2022-08-25T01:27:35.175Z,15.00
2022-08-25T01:32:37.899Z,15.00
2022-08-25T01:37:41.042Z,15.00
2022-08-25T01:42:54.120Z,14.90
2022-08-25T01:47:57.092Z,14.90
2022-08-25T01:53:11.356Z,14.80
2022-08-25T01:58:14.141Z,14.80
2022-08-25T02:03:19.077Z,14.70
2022-08-25T02:08:23.454Z,14.70
2022-08-25T02:13:26.886Z,14.70
2022-08-25T02:18:34.181Z,14.60
2022-08-25T02:23:37.034Z,14.60
2022-08-25T02:28:39.941Z,14.50
2022-08-25T02:33:42.919Z,14.50
2022-08-25T02:38:46.294Z,14.50
2022-08-25T02:43:49.747Z,14.50
2022-08-25T02:48:53.423Z,14.50
2022-08-25T02:53:57.710Z,14.40
2022-08-25T02:59:01.333Z,14.40
2022-08-25T03:04:04.691Z,14.40
2022-08-25T03:09:08.062Z,14.30
2022-08-25T03:14:11.280Z,14.30
2022-08-25T03:19:14.660Z,14.30
2022-08-25T03:24:17.481Z,14.30
2022-08-25T03:29:21.141Z,14.20
2022-08-25T03:34:24.165Z,14.20
2022-08-25T03:39:27.667Z,14.20
2022-08-25T03:44:30.462Z,14.10
2022-08-25T03:49:33.222Z,14.10
2022-08-25T03:54:37.488Z,14.10
2022-08-25T03:59:40.660Z,14.00
2022-08-25T04:04:43.452Z,14.00
2022-08-25T04:09:46.400Z,14.00
2022-08-25T04:14:49.288Z,14.00
2022-08-25T04:19:52.184Z,14.00
2022-08-25T04:24:55.017Z,13.90
2022-08-25T04:29:57.758Z,14.00
2022-08-25T04:35:00.569Z,13.90
2022-08-25T04:40:04.679Z,13.90
2022-08-25T04:45:08.017Z,13.90
2022-08-25T04:50:11.222Z,13.90
2022-08-25T04:55:14.783Z,13.90
2022-08-25T05:00:18.313Z,14.00
2022-08-25T05:05:21.002Z,14.00
2022-08-25T05:10:24.660Z,14.10
2022-08-25T05:15:47.731Z,14.20
2022-08-25T05:20:55.167Z,14.40
2022-08-25T05:26:07.361Z,14.60
2022-08-25T05:31:16.284Z,14.90
2022-08-25T05:36:20.325Z,15.20
2022-08-25T05:41:27.846Z,15.60
2022-08-25T05:46:31.939Z,15.80
2022-08-25T05:51:34.822Z,16.10
2022-08-25T05:56:37.781Z,16.50
2022-08-25T06:01:59.044Z,16.80
2022-08-25T06:07:01.791Z,17.20
2022-08-25T06:12:04.843Z,17.50
2022-08-25T06:17:10.902Z,17.90
2022-08-25T06:22:13.726Z,18.20
2022-08-25T06:27:16.497Z,18.60
2022-08-25T06:32:19.243Z,18.90
2022-08-25T06:37:25.199Z,19.30
2022-08-25T06:42:28.589Z,19.60
2022-08-25T06:47:31.391Z,20.00
2022-08-25T06:52:34.238Z,20.20
2022-08-25T06:57:37.032Z,20.60
2022-08-25T07:02:39.984Z,20.80
2022-08-25T07:07:44.975Z,21.10
2022-08-25T07:12:47.823Z,21.40
2022-08-25T07:17:50.681Z,21.80
2022-08-25T07:22:53.735Z,22.10
2022-08-25T07:27:58.842Z,22.30
2022-08-25T07:33:05.894Z,22.50
2022-08-25T07:38:13.046Z,22.80
2022-08-25T07:43:23.277Z,23.20
2022-08-25T07:48:26.086Z,23.40
2022-08-25T07:53:28.850Z,23.70
2022-08-25T07:58:31.612Z,24.00
2022-08-25T08:03:50.648Z,24.20
2022-08-25T08:08:57.937Z,24.40
2022-08-25T08:14:02.464Z,24.60
2022-08-25T08:19:06.348Z,24.90
2022-08-25T08:24:24.844Z,25.10
2022-08-25T08:29:32.758Z,25.40
2022-08-25T08:34:36.672Z,25.60
2022-08-25T08:39:39.702Z,25.70
2022-08-25T08:44:42.726Z,26.00
2022-08-25T08:50:01.291Z,26.10
2022-08-25T08:55:25.661Z,26.20
2022-08-25T09:00:29.262Z,26.50
2022-08-25T09:05:46.712Z,26.60
2022-08-25T09:11:26.477Z,26.70
2022-08-25T09:17:06.565Z,26.90
2022-08-25T09:22:35.273Z,27.20
2022-08-25T09:27:59.724Z,27.50
2022-08-25T09:33:05.353Z,27.30
2022-08-25T09:38:26.518Z,27.30
2022-08-25T09:43:44.728Z,27.30
2022-08-25T09:48:56.961Z,27.30
2022-08-25T09:54:15.824Z,27.50
2022-08-25T09:59:34.937Z,27.90
2022-08-25T10:04:40.113Z,27.90
2022-08-25T10:09:51.080Z,28.20
2022-08-25T10:14:54.431Z,28.30
2022-08-25T10:20:19.968Z,28.30
2022-08-25T10:25:31.223Z,28.20
2022-08-25T10:30:51.692Z,28.00
2022-08-25T10:36:20.329Z,27.80
2022-08-25T10:41:59.840Z,28.10
2022-08-25T10:47:41.634Z,28.10
2022-08-25T10:52:48.199Z,28.10
2022-08-25T10:58:19.893Z,28.10
2022-08-25T11:03:50.223Z,28.10
2022-08-25T11:08:59.505Z,28.20
2022-08-25T11:14:19.317Z,28.40
2022-08-25T11:19:33.796Z,28.20
2022-08-25T11:24:47.312Z,28.10
2022-08-25T11:30:10.080Z,28.10
2022-08-25T11:35:16.391Z,28.10
2022-08-25T11:40:50.044Z,28.10
2022-08-25T11:46:17.756Z,27.90
2022-08-25T11:51:40.667Z,28.10
2022-08-25T11:56:51.073Z,28.40
2022-08-25T12:01:57.153Z,28.30
2022-08-25T12:07:10.701Z,28.40
2022-08-25T12:12:55.229Z,28.70
2022-08-25T12:18:33.967Z,28.90
2022-08-25T12:24:04.412Z,29.20
2022-08-25T12:29:35.204Z,29.40
2022-08-25T12:34:52.978Z,29.60
2022-08-25T12:39:58.779Z,29.60
2022-08-25T12:45:26.526Z,29.80
2022-08-25T12:50:43.276Z,29.70
2022-08-25T12:55:51.816Z,29.90
2022-08-25T13:01:03.633Z,29.80
2022-08-25T13:06:13.186Z,29.60
2022-08-25T13:11:39.800Z,29.60
2022-08-25T13:16:57.648Z,29.50
2022-08-25T13:22:04.008Z,29.80
2022-08-25T13:27:09.735Z,29.60
2022-08-25T13:32:14.835Z,29.80
2022-08-25T13:37:29.578Z,29.90
2022-08-25T13:42:33.053Z,29.80
2022-08-25T13:47:45.262Z,29.90
2022-08-25T13:53:15.683Z,30.20
2022-08-25T13:58:44.644Z,30.40
2022-08-25T14:03:48.572Z,30.50
2022-08-25T14:09:01.562Z,30.50
2022-08-25T14:14:10.311Z,30.40
2022-08-25T14:19:20.315Z,30.40
2022-08-25T14:24:24.559Z,30.10
2022-08-25T14:29:27.438Z,30.20
2022-08-25T14:34:36.827Z,29.80
2022-08-25T14:39:39.577Z,29.90
2022-08-25T14:44:47.188Z,30.00
2022-08-25T14:49:50.302Z,30.00
2022-08-25T14:54:53.459Z,30.00
2022-08-25T14:59:56.764Z,30.00
2022-08-25T15:05:05.974Z,30.10
2022-08-25T15:10:09.845Z,30.20
2022-08-25T15:15:16.768Z,30.10
2022-08-25T15:20:20.704Z,30.20
2022-08-25T15:25:24.550Z,29.90
2022-08-25T15:30:31.279Z,30.00
2022-08-25T15:35:35.312Z,29.70
2022-08-25T15:40:39.599Z,29.60
2022-08-25T15:45:42.510Z,29.30
2022-08-25T15:50:45.319Z,29.20
2022-08-25T15:55:48.327Z,29.10
2022-08-25T16:00:56.474Z,29.00
2022-08-25T16:06:02.879Z,28.80
2022-08-25T16:11:07.284Z,28.70
2022-08-25T16:16:10.096Z,28.70
2022-08-25T16:21:15.678Z,28.50
2022-08-25T16:26:18.887Z,28.40
2022-08-25T16:31:21.692Z,28.30
2022-08-25T16:36:27.119Z,28.20
2022-08-25T16:41:35.756Z,28.10
2022-08-25T16:46:40.683Z,28.00
2022-08-25T16:51:43.765Z,27.80
2022-08-25T16:56:46.926Z,27.50
2022-08-25T17:01:54.418Z,27.50
2022-08-25T17:06:57.442Z,27.30
2022-08-25T17:12:00.943Z,27.10
2022-08-25T17:17:07.212Z,27.00
2022-08-25T17:22:14.275Z,27.00
2022-08-25T17:27:18.612Z,26.90
2022-08-25T17:32:21.442Z,26.80
2022-08-25T17:37:33.122Z,26.60
2022-08-25T17:42:37.114Z,26.40
2022-08-25T17:47:40.013Z,26.30
2022-08-25T17:52:42.757Z,26.10
2022-08-25T17:57:45.437Z,26.00
2022-08-25T18:02:48.588Z,25.80
2022-08-25T18:07:51.384Z,25.70
2022-08-25T18:12:54.076Z,25.50
2022-08-25T18:17:57.441Z,25.40
2022-08-25T18:23:00.437Z,25.30
2022-08-25T18:28:03.473Z,25.20
2022-08-25T18:33:06.568Z,25.10
2022-08-25T18:38:28.183Z,24.80
2022-08-25T18:43:33.863Z,24.70
2022-08-25T18:48:37.231Z,24.70
2022-08-25T18:53:50.465Z,24.60
2022-08-25T18:58:53.886Z,24.50
2022-08-25T19:03:57.336Z,24.40
2022-08-25T19:09:00.046Z,24.30
2022-08-25T19:14:02.826Z,24.20
2022-08-25T19:19:07.859Z,24.10
2022-08-25T19:24:13.137Z,24.00
2022-08-25T19:29:17.606Z,23.80
2022-08-25T19:34:30.345Z,23.70
2022-08-25T19:39:39.063Z,23.50
2022-08-25T19:44:42.568Z,23.40
2022-08-25T19:49:45.541Z,23.30
2022-08-25T19:54:50.110Z,23.20
2022-08-25T19:59:54.868Z,23.10
2022-08-25T20:04:59.980Z,23.00
2022-08-25T20:10:05.246Z,22.90
2022-08-25T20:15:09.738Z,22.80
2022-08-25T20:20:15.828Z,22.70
2022-08-25T20:25:24.834Z,22.60
2022-08-25T20:30:30.205Z,22.60
2022-08-25T20:35:35.875Z,22.50
2022-08-25T20:40:41.808Z,22.40
2022-08-25T20:45:46.244Z,22.30
2022-08-25T20:50:54.391Z,22.30
2022-08-25T20:56:00.644Z,22.20
2022-08-25T21:01:03.783Z,22.10
2022-08-25T21:06:08.932Z,22.00
2022-08-25T21:11:18.084Z,21.90
2022-08-25T21:16:21.682Z,21.90
2022-08-25T21:21:26.242Z,21.80
2022-08-25T21:26:30.933Z,21.70
2022-08-25T21:31:37.123Z,21.60
2022-08-25T21:36:42.396Z,21.50
2022-08-25T21:41:45.733Z,21.40
2022-08-25T21:46:53.944Z,21.30
2022-08-25T21:52:02.421Z,21.20
2022-08-25T21:57:07.753Z,21.10
2022-08-25T22:02:13.331Z,21.00
2022-08-25T22:07:17.163Z,21.00
2022-08-25T22:12:20.342Z,20.80
2022-08-25T22:17:24.478Z,20.80
2022-08-25T22:22:27.529Z,20.70
2022-08-25T22:27:30.472Z,20.50
2022-08-25T22:32:33.324Z,20.50
2022-08-25T22:37:36.907Z,20.40
2022-08-25T22:42:40.260Z,20.30
2022-08-25T22:47:43.532Z,20.20
2022-08-25T22:52:46.677Z,20.10
2022-08-25T22:57:50.691Z,20.10
2022-08-25T23:02:57.581Z,20.00
2022-08-25T23:08:00.272Z,19.90
2022-08-25T23:13:03.262Z,19.80
2022-08-25T23:18:10.212Z,19.70
2022-08-25T23:23:14.083Z,19.70
2022-08-25T23:28:17.022Z,19.60
2022-08-25T23:33:21.623Z,19.50
2022-08-25T23:38:24.403Z,19.40
2022-08-25T23:43:27.476Z,19.40
2022-08-25T23:48:30.908Z,19.30
2022-08-25T23:53:35.454Z,19.20
2022-08-25T23:58:38.212Z,19.20
